createdAt,value
2022-09-23T00:01:00.408Z,100800.09
2022-09-23T00:03:29.283Z,100745.94
2022-09-23T00:06:00.628Z,100802.69
2022-09-23T00:08:28.329Z,100728.19
2022-09-23T00:10:57.409Z,100795.81
2022-09-23T00:13:25.216Z,100796.66
2022-09-23T00:15:52.963Z,100795.91
2022-09-23T00:18:21.108Z,100796.00
2022-09-23T00:20:49.143Z,100762.84
2022-09-23T00:23:16.811Z,100791.69
2022-09-23T00:25:44.524Z,100785.53
2022-09-23T00:28:13.569Z,100781.91
2022-09-23T00:30:41.979Z,100785.53
2022-09-23T00:33:09.717Z,100786.38
2022-09-23T00:35:38.635Z,100764.06
2022-09-23T00:38:06.308Z,100785.63
2022-09-23T00:40:34.126Z,100783.88
2022-09-23T00:43:02.050Z,100778.56
2022-09-23T00:45:31.146Z,100779.59
2022-09-23T00:47:59.467Z,100757.19
2022-09-23T00:50:30.164Z,100699.59
2022-09-23T00:52:59.522Z,100761.31
2022-09-23T00:55:29.432Z,100690.34
2022-09-23T00:57:58.109Z,100697.91
2022-09-23T01:00:25.807Z,100695.41
2022-09-23T01:02:54.995Z,100763.19
2022-09-23T01:05:22.690Z,100627.50
2022-09-23T01:07:50.835Z,100757.03
2022-09-23T01:10:18.575Z,100743.63
2022-09-23T01:13:09.490Z,100755.28
2022-09-23T01:15:40.624Z,100757.19
2022-09-23T01:18:15.016Z,100762.34
2022-09-23T01:20:59.358Z,100706.44
2022-09-23T01:23:52.862Z,100754.63
2022-09-23T01:26:30.855Z,100744.16
2022-09-23T01:29:08.378Z,100749.72
2022-09-23T01:31:38.741Z,100664.31
2022-09-23T01:34:08.514Z,100739.84
2022-09-23T01:36:38.489Z,100733.69
2022-09-23T01:39:09.748Z,100692.13
2022-09-23T01:41:47.264Z,100667.97
2022-09-23T01:44:21.036Z,100666.28
2022-09-23T01:46:51.679Z,100726.78
2022-09-23T01:49:21.253Z,100655.03
2022-09-23T01:51:50.555Z,100734.84
2022-09-23T01:54:21.002Z,100680.28
2022-09-23T01:56:52.398Z,100715.06
2022-09-23T01:59:21.699Z,100730.66
2022-09-23T02:01:55.136Z,100723.03
2022-09-23T02:04:24.955Z,100725.88
2022-09-23T02:06:54.136Z,100729.22
2022-09-23T02:09:24.866Z,100725.88
2022-09-23T02:11:52.913Z,100724.50
2022-09-23T02:14:22.594Z,100726.19
2022-09-23T02:16:52.588Z,100720.97
2022-09-23T02:19:22.399Z,100711.72
2022-09-23T02:21:52.392Z,100668.25
2022-09-23T02:24:21.530Z,100720.59
2022-09-23T02:26:52.766Z,100722.19
2022-09-23T02:29:21.913Z,100677.25
2022-09-23T02:31:56.570Z,100718.22
2022-09-23T02:34:31.228Z,100695.34
2022-09-23T02:37:06.532Z,100666.88
2022-09-23T02:39:37.795Z,100713.25
2022-09-23T02:42:07.534Z,100711.06
2022-09-23T02:44:35.230Z,100674.41
2022-09-23T02:47:04.288Z,100705.81
2022-09-23T02:49:32.470Z,100707.88
2022-09-23T02:52:03.535Z,100706.88
2022-09-23T02:54:33.436Z,100705.75
2022-09-23T02:57:01.178Z,100700.75
2022-09-23T02:59:28.971Z,100695.59
2022-09-23T03:02:36.164Z,100697.31
2022-09-23T03:05:06.553Z,100698.44
2022-09-23T03:07:37.502Z,100697.56
2022-09-23T03:10:09.692Z,100683.41
2022-09-23T03:12:39.793Z,100697.81
2022-09-23T03:15:11.005Z,100696.13
2022-09-23T03:17:44.191Z,100693.44
2022-09-23T03:20:13.777Z,100689.19
2022-09-23T03:22:43.169Z,100691.91
2022-09-23T03:25:13.244Z,100647.13
2022-09-23T03:27:42.426Z,100665.31
2022-09-23T03:30:11.051Z,100688.13
2022-09-23T03:32:40.279Z,100689.84
2022-09-23T03:35:08.866Z,100697.97
2022-09-23T03:37:37.171Z,100636.19
2022-09-23T03:40:08.391Z,100653.22
2022-09-23T03:42:36.101Z,100682.13
2022-09-23T03:45:06.700Z,100680.34
2022-09-23T03:47:34.361Z,100686.50
2022-09-23T03:50:03.438Z,100674.16
2022-09-23T03:52:31.103Z,100674.22
2022-09-23T03:54:58.792Z,100668.56
2022-09-23T03:57:26.467Z,100665.91
2022-09-23T03:59:54.152Z,100658.69
2022-09-23T04:02:21.918Z,100658.88
2022-09-23T04:04:49.645Z,100647.22
2022-09-23T04:07:18.685Z,100651.75
2022-09-23T04:09:46.332Z,100651.69
2022-09-23T04:12:15.066Z,100580.50
2022-09-23T04:14:42.762Z,100645.50
2022-09-23T04:17:10.454Z,100643.63
2022-09-23T04:19:38.181Z,100642.00
2022-09-23T04:22:06.017Z,100631.38
2022-09-23T04:24:35.032Z,100632.38
2022-09-23T04:27:02.735Z,100627.94
2022-09-23T04:29:30.409Z,100594.81
2022-09-23T04:31:58.160Z,100616.59
2022-09-23T04:34:25.913Z,100626.38
2022-09-23T04:36:53.588Z,100617.56
2022-09-23T04:39:21.293Z,100624.66
2022-09-23T04:41:50.333Z,100627.22
2022-09-23T04:44:20.300Z,100620.22
2022-09-23T04:46:48.381Z,100613.19
2022-09-23T04:49:16.277Z,100555.88
2022-09-23T04:51:44.147Z,100615.94
2022-09-23T04:54:11.979Z,100554.59
2022-09-23T04:56:39.776Z,100608.03
2022-09-23T04:59:08.876Z,100618.84
2022-09-23T05:01:36.752Z,100624.16
2022-09-23T05:04:05.709Z,100630.31
2022-09-23T05:06:34.508Z,100615.41
2022-09-23T05:09:02.342Z,100553.03
2022-09-23T05:11:30.491Z,100568.53
2022-09-23T05:13:58.207Z,100620.63
2022-09-23T05:16:27.710Z,100613.59
2022-09-23T05:18:55.534Z,100625.16
2022-09-23T05:21:24.523Z,100619.00
2022-09-23T05:23:54.229Z,100615.47
2022-09-23T05:26:22.364Z,100619.34
2022-09-23T05:28:50.068Z,100617.34
2022-09-23T05:31:20.352Z,100619.41
2022-09-23T05:33:51.845Z,100573.34
2022-09-23T05:36:20.674Z,100545.34
2022-09-23T05:38:49.170Z,100613.50
2022-09-23T05:41:17.282Z,100613.59
2022-09-23T05:43:45.011Z,100609.31
2022-09-23T05:46:13.583Z,100561.22
2022-09-23T05:48:41.565Z,100557.09
2022-09-23T05:51:12.908Z,100606.66
2022-09-23T05:53:40.761Z,100560.59
2022-09-23T05:56:08.545Z,100583.84
2022-09-23T05:58:36.215Z,100613.09
2022-09-23T06:01:10.268Z,100607.88
2022-09-23T06:03:37.936Z,100604.25
2022-09-23T06:06:05.733Z,100595.84
2022-09-23T06:08:34.906Z,100603.56
2022-09-23T06:11:07.142Z,100605.38
2022-09-23T06:13:38.191Z,100602.72
2022-09-23T06:16:08.148Z,100602.72
2022-09-23T06:18:35.945Z,100528.97
2022-09-23T06:21:03.759Z,100603.72
2022-09-23T06:23:31.496Z,100601.00
2022-09-23T06:26:04.058Z,100595.75
2022-09-23T06:28:32.366Z,100601.53
2022-09-23T06:31:01.243Z,100600.66
2022-09-23T06:33:36.284Z,100595.41
2022-09-23T06:36:06.096Z,100604.78
2022-09-23T06:38:34.198Z,100595.09
2022-09-23T06:41:03.470Z,100601.97
2022-09-23T06:43:31.327Z,100604.44
2022-09-23T06:45:59.603Z,100601.88
2022-09-23T06:48:28.038Z,100602.72
2022-09-23T06:50:57.931Z,100600.06
2022-09-23T06:53:25.732Z,100605.47
2022-09-23T06:55:59.303Z,100602.81
2022-09-23T06:58:28.308Z,100599.22
2022-09-23T07:00:56.194Z,100600.13
2022-09-23T07:03:23.866Z,100598.53
2022-09-23T07:05:52.019Z,100596.66
2022-09-23T07:08:19.699Z,100597.56
2022-09-23T07:10:52.442Z,100573.06
2022-09-23T07:13:20.104Z,100610.28
2022-09-23T07:15:51.938Z,100606.66
2022-09-23T07:18:19.768Z,100548.44
2022-09-23T07:20:48.356Z,100601.25
2022-09-23T07:23:17.594Z,100537.03
2022-09-23T07:25:46.785Z,100566.97
2022-09-23T07:28:14.448Z,100580.69
2022-09-23T07:30:55.550Z,100599.47
2022-09-23T07:33:32.228Z,100594.00
2022-09-23T07:36:00.390Z,100589.16
2022-09-23T07:38:30.350Z,100596.06
2022-09-23T07:41:01.458Z,100606.50
2022-09-23T07:43:32.268Z,100587.66
2022-09-23T07:46:02.287Z,100589.25
2022-09-23T07:48:34.310Z,100585.47
2022-09-23T07:51:06.802Z,100581.72
2022-09-23T07:53:34.515Z,100568.16
2022-09-23T07:56:04.558Z,100580.63
2022-09-23T07:58:32.213Z,100581.22
2022-09-23T08:01:03.243Z,100579.41
2022-09-23T08:03:32.275Z,100580.00
2022-09-23T08:06:07.780Z,100520.66
2022-09-23T08:08:35.518Z,100587.72
2022-09-23T08:11:03.711Z,100586.75
2022-09-23T08:13:31.394Z,100586.41
2022-09-23T08:15:59.323Z,100587.97
2022-09-23T08:18:27.112Z,100569.09
2022-09-23T08:20:56.158Z,100587.59
2022-09-23T08:23:23.813Z,100576.97
2022-09-23T08:25:59.691Z,100576.41
2022-09-23T08:28:27.507Z,100581.38
2022-09-23T08:30:55.247Z,100584.69
2022-09-23T08:33:23.813Z,100577.59
2022-09-23T08:35:51.745Z,100566.06
2022-09-23T08:40:09.892Z,100572.75
2022-09-23T08:42:37.589Z,100567.25
2022-09-23T08:45:06.780Z,100571.53
2022-09-23T08:47:44.396Z,100575.06
2022-09-23T08:50:14.636Z,100567.06
2022-09-23T08:52:45.146Z,100507.69
2022-09-23T08:55:14.672Z,100558.31
2022-09-23T08:58:02.246Z,100566.59
2022-09-23T09:00:37.297Z,100566.41
2022-09-23T09:03:08.046Z,100567.16
2022-09-23T09:05:35.767Z,100565.28
2022-09-23T09:08:03.419Z,100561.47
2022-09-23T09:10:35.193Z,100555.78
2022-09-23T09:13:05.363Z,100560.81
2022-09-23T09:15:32.971Z,100546.38
2022-09-23T09:18:02.412Z,100554.84
2022-09-23T09:20:35.185Z,100553.75
2022-09-23T09:23:05.771Z,100546.59
2022-09-23T09:25:44.133Z,100550.59
2022-09-23T09:28:15.696Z,100549.44
2022-09-23T09:30:48.306Z,100543.25
2022-09-23T09:33:17.443Z,100540.28
2022-09-23T09:36:00.686Z,100540.09
2022-09-23T09:38:28.410Z,100535.63
2022-09-23T09:41:00.778Z,100532.78
2022-09-23T09:43:28.441Z,100525.56
2022-09-23T09:46:02.159Z,100532.50
2022-09-23T09:48:32.405Z,100528.84
2022-09-23T09:51:00.407Z,100521.63
2022-09-23T09:53:29.372Z,100469.44
2022-09-23T09:56:04.713Z,100524.19
2022-09-23T09:58:41.638Z,100504.78
2022-09-23T10:01:09.420Z,100516.00
2022-09-23T10:03:39.866Z,100426.06
2022-09-23T10:06:19.667Z,100505.25
2022-09-23T10:09:05.956Z,100491.66
2022-09-23T10:11:35.055Z,100501.91
2022-09-23T10:14:05.855Z,100400.00
2022-09-23T10:16:34.548Z,100493.09
2022-09-23T10:19:02.420Z,100500.97
2022-09-23T10:21:34.674Z,100455.31
2022-09-23T10:24:03.537Z,100445.06
2022-09-23T10:26:32.458Z,100489.34
2022-09-23T10:29:02.268Z,100484.88
2022-09-23T10:31:31.634Z,100489.16
2022-09-23T10:34:00.684Z,100451.25
2022-09-23T10:36:28.772Z,100417.88
2022-09-23T10:39:17.891Z,100453.03
2022-09-23T10:42:07.778Z,100486.09
2022-09-23T10:44:57.144Z,100472.88
2022-09-23T10:47:29.828Z,100469.34
2022-09-23T10:50:05.182Z,100473.75
2022-09-23T10:52:44.579Z,100450.97
2022-09-23T10:55:19.140Z,100424.59
2022-09-23T10:57:57.687Z,100395.41
2022-09-23T11:00:30.154Z,100466.72
2022-09-23T11:03:09.478Z,100408.59
2022-09-23T11:05:40.068Z,100461.41
2022-09-23T11:08:18.299Z,100418.78
2022-09-23T11:11:03.567Z,100461.19
2022-09-23T11:13:45.248Z,100419.19
2022-09-23T11:16:20.109Z,100469.84
2022-09-23T11:18:59.162Z,100460.91
2022-09-23T11:21:39.345Z,100450.44
2022-09-23T11:24:15.995Z,100451.16
2022-09-23T11:26:47.056Z,100456.41
2022-09-23T11:29:42.551Z,100454.50
2022-09-23T11:32:21.962Z,100412.44
2022-09-23T11:35:02.506Z,100441.47
2022-09-23T11:37:31.497Z,100443.84
2022-09-23T11:40:02.137Z,100436.81
2022-09-23T11:42:32.105Z,100374.09
2022-09-23T11:45:00.907Z,100426.25
2022-09-23T11:47:30.560Z,100425.47
2022-09-23T11:50:00.342Z,100423.56
2022-09-23T11:52:30.165Z,100427.28
2022-09-23T11:54:59.252Z,100415.97
2022-09-23T11:57:34.879Z,100422.81
2022-09-23T12:00:08.278Z,100379.22
2022-09-23T12:02:59.783Z,100366.31
2022-09-23T12:05:32.918Z,100346.66
2022-09-23T12:08:02.867Z,100413.22
2022-09-23T12:10:38.676Z,100410.44
2022-09-23T12:13:08.279Z,100395.78
2022-09-23T12:15:43.699Z,100400.63
2022-09-23T12:18:35.650Z,100401.47
2022-09-23T12:21:50.311Z,100322.69
2022-09-23T12:24:27.976Z,100388.25
2022-09-23T12:26:57.220Z,100389.13
2022-09-23T12:29:25.511Z,100383.78
2022-09-23T12:31:53.210Z,100382.81
2022-09-23T12:34:24.472Z,100337.84
2022-09-23T12:36:52.371Z,100375.88
2022-09-23T12:39:25.187Z,100380.91
2022-09-23T12:41:58.391Z,100324.53
2022-09-23T12:44:31.924Z,100369.38
2022-09-23T12:47:30.847Z,100369.16
2022-09-23T12:50:01.217Z,100373.75
2022-09-23T12:52:30.882Z,100319.75
2022-09-23T12:54:59.008Z,100317.09
2022-09-23T12:57:42.632Z,100350.25
2022-09-23T13:00:23.214Z,100304.19
2022-09-23T13:03:09.542Z,100362.97
2022-09-23T13:06:01.371Z,100363.75
2022-09-23T13:08:29.050Z,100356.81
2022-09-23T13:10:57.903Z,100362.88
2022-09-23T13:13:27.250Z,100360.22
2022-09-23T13:15:55.121Z,100357.53
2022-09-23T13:18:41.374Z,100353.84
2022-09-23T13:21:18.844Z,100313.81
2022-09-23T13:24:18.708Z,100348.41
2022-09-23T13:26:46.799Z,100304.75
2022-09-23T13:29:17.927Z,100347.44
2022-09-23T13:31:46.126Z,100342.97
2022-09-23T13:34:14.200Z,100286.59
2022-09-23T13:36:46.375Z,100338.34
2022-09-23T13:39:17.412Z,100332.09
2022-09-23T13:41:45.373Z,100321.53
2022-09-23T13:44:19.288Z,100324.69
2022-09-23T13:46:48.537Z,100264.31
2022-09-23T13:49:22.246Z,100324.59
2022-09-23T13:51:51.491Z,100336.78
2022-09-23T13:54:28.914Z,100333.94
2022-09-23T13:56:56.879Z,100333.94
2022-09-23T13:59:26.098Z,100325.84
2022-09-23T14:02:03.498Z,100317.81
2022-09-23T14:04:31.170Z,100327.41
2022-09-23T14:07:00.203Z,100318.44
2022-09-23T14:09:28.512Z,100321.00
2022-09-23T14:11:56.360Z,100312.38
2022-09-23T14:14:24.150Z,100320.91
2022-09-23T14:16:52.204Z,100305.88
2022-09-23T14:19:20.694Z,100248.53
2022-09-23T14:21:49.216Z,100305.88
2022-09-23T14:24:19.467Z,100263.19
2022-09-23T14:26:48.010Z,100282.69
2022-09-23T14:29:17.286Z,100290.69
2022-09-23T14:31:56.941Z,100298.94
2022-09-23T14:34:44.880Z,100301.50
2022-09-23T14:37:42.613Z,100257.84
2022-09-23T14:40:16.544Z,100290.06
2022-09-23T14:42:46.378Z,100220.94
2022-09-23T14:45:16.484Z,100225.06
2022-09-23T14:47:44.736Z,100289.22
2022-09-23T14:50:34.106Z,100278.84
2022-09-23T14:53:02.037Z,100273.09
2022-09-23T14:55:31.498Z,100284.53
2022-09-23T14:58:03.447Z,100280.88
2022-09-23T15:00:31.547Z,100275.66
2022-09-23T15:02:59.937Z,100221.56
2022-09-23T15:05:32.369Z,100279.94
2022-09-23T15:08:02.236Z,100277.38
2022-09-23T15:10:32.131Z,100199.00
2022-09-23T15:13:05.122Z,100273.00
2022-09-23T15:15:32.800Z,100270.44
2022-09-23T15:18:05.102Z,100261.81
2022-09-23T15:20:32.846Z,100266.06
2022-09-23T15:23:01.108Z,100259.03
2022-09-23T15:25:33.933Z,100224.13
2022-09-23T15:28:04.272Z,100260.94
2022-09-23T15:30:32.635Z,100240.44
2022-09-23T15:33:00.909Z,100249.72
2022-09-23T15:35:28.809Z,100253.13
2022-09-23T15:37:58.254Z,100249.59
2022-09-23T15:40:26.836Z,100200.25
2022-09-23T15:42:57.303Z,100249.72
2022-09-23T15:45:30.568Z,100257.72
2022-09-23T15:48:00.807Z,100211.66
2022-09-23T15:50:30.181Z,100194.81
2022-09-23T15:52:58.343Z,100252.59
2022-09-23T15:55:26.249Z,100215.94
2022-09-23T15:57:53.931Z,100258.91
2022-09-23T16:00:22.994Z,100251.75
2022-09-23T16:02:50.708Z,100257.19
2022-09-23T16:05:22.225Z,100249.19
2022-09-23T16:07:52.217Z,100260.81
2022-09-23T16:10:21.395Z,100248.44
2022-09-23T16:12:49.067Z,100219.66
2022-09-23T16:15:18.431Z,100218.91
2022-09-23T16:17:47.486Z,100253.88
2022-09-23T16:20:17.691Z,100208.47
2022-09-23T16:22:45.241Z,100249.63
2022-09-23T16:25:12.928Z,100250.47
2022-09-23T16:27:41.204Z,100246.00
2022-09-23T16:30:10.109Z,100240.97
2022-09-23T16:32:38.346Z,100241.63
2022-09-23T16:35:08.998Z,100246.97
2022-09-23T16:37:36.783Z,100247.91
2022-09-23T16:40:04.872Z,100245.22
2022-09-23T16:42:32.615Z,100239.19
2022-09-23T16:45:00.346Z,100244.50
2022-09-23T16:47:28.034Z,100244.50
2022-09-23T16:49:55.690Z,100245.44
2022-09-23T16:52:24.736Z,100237.16
2022-09-23T16:54:52.400Z,100246.41
2022-09-23T16:57:20.117Z,100248.31
2022-09-23T17:00:05.174Z,100243.00
2022-09-23T17:02:50.566Z,100243.09
2022-09-23T17:05:19.351Z,100248.53
2022-09-23T17:07:48.752Z,100234.59
2022-09-23T17:10:19.125Z,100245.88
2022-09-23T17:12:47.509Z,100239.81
2022-09-23T17:15:15.190Z,100246.94
2022-09-23T17:17:42.880Z,100247.06
2022-09-23T17:20:13.142Z,100241.06
2022-09-23T17:22:40.987Z,100198.63
2022-09-23T17:25:10.501Z,100248.03
2022-09-23T17:27:38.267Z,100255.16
2022-09-23T17:30:06.889Z,100254.28
2022-09-23T17:32:34.607Z,100252.59
2022-09-23T17:35:04.626Z,100257.06
2022-09-23T17:37:33.196Z,100257.06
2022-09-23T17:40:00.875Z,100261.56
2022-09-23T17:42:29.961Z,100257.16
2022-09-23T17:44:59.228Z,100257.16
2022-09-23T17:47:26.990Z,100256.44
2022-09-23T17:49:56.220Z,100253.78
2022-09-23T17:52:23.909Z,100252.06
2022-09-23T17:54:55.000Z,100254.72
2022-09-23T17:57:22.699Z,100257.38
2022-09-23T17:59:53.654Z,100254.72
2022-09-23T18:02:22.624Z,100257.50
2022-09-23T18:04:50.409Z,100241.84
2022-09-23T18:07:18.107Z,100258.34
2022-09-23T18:09:45.765Z,100252.16
2022-09-23T18:12:14.759Z,100242.78
2022-09-23T18:14:42.432Z,100251.22
2022-09-23T18:17:11.476Z,100242.56
2022-09-23T18:19:39.156Z,100246.00
2022-09-23T18:22:06.864Z,100244.31
2022-09-23T18:24:37.970Z,100243.34
2022-09-23T18:27:06.506Z,100239.81
2022-09-23T18:29:34.358Z,100245.13
2022-09-23T18:32:02.624Z,100242.56
2022-09-23T18:34:31.695Z,100237.25
2022-09-23T18:36:59.442Z,100239.91
2022-09-23T18:39:27.132Z,100244.41
2022-09-23T18:41:54.891Z,100247.06
2022-09-23T18:44:23.427Z,100238.09
2022-09-23T18:46:51.134Z,100243.44
2022-09-23T18:49:36.378Z,100228.94
2022-09-23T18:52:05.426Z,100242.56
2022-09-23T18:54:33.106Z,100236.41
2022-09-23T18:57:01.228Z,100246.09
2022-09-23T18:59:28.981Z,100246.09
2022-09-23T19:01:56.858Z,100249.63
2022-09-23T19:04:25.404Z,100166.66
2022-09-23T19:06:53.682Z,100210.38
2022-09-23T19:09:22.677Z,100247.91
2022-09-23T19:11:52.197Z,100247.91
2022-09-23T19:14:20.038Z,100248.00
2022-09-23T19:16:48.989Z,100240.88
2022-09-23T19:19:16.791Z,100237.34
2022-09-23T19:21:44.481Z,100236.41
2022-09-23T19:24:15.506Z,100238.22
2022-09-23T19:26:45.096Z,100232.88
2022-09-23T19:29:14.664Z,100233.84
2022-09-23T19:31:42.607Z,100236.50
2022-09-23T19:34:13.544Z,100171.47
2022-09-23T19:36:42.261Z,100182.97
2022-09-23T19:39:13.201Z,100217.00
2022-09-23T19:41:40.924Z,100213.47
2022-09-23T19:44:09.998Z,100217.84
2022-09-23T19:46:39.005Z,100217.97
2022-09-23T19:49:07.701Z,100164.94
2022-09-23T19:51:35.563Z,100170.06
2022-09-23T19:54:03.762Z,100209.97
2022-09-23T19:56:32.368Z,100216.13
2022-09-23T19:59:00.205Z,100212.75
2022-09-23T20:01:30.364Z,100163.34
2022-09-23T20:03:57.846Z,100222.44
2022-09-23T20:06:25.605Z,100218.06
2022-09-23T20:08:53.271Z,100208.25
2022-09-23T20:11:26.209Z,100159.00
2022-09-23T20:14:00.581Z,100210.91
2022-09-23T20:16:31.999Z,100211.78
2022-09-23T20:19:00.691Z,100212.75
2022-09-23T20:21:29.260Z,100200.34
2022-09-23T20:23:57.107Z,100203.00
2022-09-23T20:26:41.696Z,100194.19
2022-09-23T20:29:10.725Z,100189.69
2022-09-23T20:31:40.453Z,100196.84
2022-09-23T20:34:09.149Z,100148.25
2022-09-23T20:36:36.911Z,100193.31
2022-09-23T20:39:06.402Z,100185.34
2022-09-23T20:41:37.169Z,100175.97
2022-09-23T20:44:06.253Z,100141.50
2022-09-23T20:46:34.148Z,100188.97
2022-09-23T20:49:03.640Z,100191.63
2022-09-23T20:51:33.467Z,100180.31
2022-09-23T20:54:01.491Z,100188.97
2022-09-23T20:56:29.375Z,100187.13
2022-09-23T20:59:00.277Z,100182.66
2022-09-23T21:01:28.243Z,100192.47
2022-09-23T21:03:56.019Z,100187.13
2022-09-23T21:06:26.092Z,100186.31
2022-09-23T21:08:54.600Z,100187.25
2022-09-23T21:11:22.344Z,100182.88
2022-09-23T21:13:50.651Z,100189.91
2022-09-23T21:16:19.213Z,100123.16
2022-09-23T21:18:48.106Z,100166.97
2022-09-23T21:21:17.249Z,100126.50
2022-09-23T21:23:46.651Z,100184.56
2022-09-23T21:26:15.454Z,100091.63
2022-09-23T21:28:44.009Z,100178.41
2022-09-23T21:31:13.256Z,100173.09
2022-09-23T21:33:41.021Z,100174.88
2022-09-23T21:36:09.079Z,100175.84
2022-09-23T21:38:36.978Z,100175.00
2022-09-23T21:41:06.898Z,100176.06
2022-09-23T21:43:38.422Z,100147.16
2022-09-23T21:46:07.068Z,100174.13
2022-09-23T21:48:35.516Z,100174.56
2022-09-23T21:51:04.590Z,100106.00
2022-09-23T21:53:32.888Z,100175.84
2022-09-23T21:56:04.446Z,100174.13
2022-09-23T21:58:34.368Z,100178.63
2022-09-23T22:01:02.279Z,100165.63
2022-09-23T22:03:30.195Z,100175.09
2022-09-23T22:06:04.874Z,100124.47
2022-09-23T22:08:36.894Z,100176.91
2022-09-23T22:11:08.725Z,100110.28
2022-09-23T22:13:37.746Z,100181.41
2022-09-23T22:16:06.229Z,100183.31
2022-09-23T22:18:33.941Z,100193.84
2022-09-23T22:21:01.634Z,100188.53
2022-09-23T22:23:29.338Z,100193.97
2022-09-23T22:26:03.241Z,100193.84
2022-09-23T22:28:50.901Z,100193.00
2022-09-23T22:31:37.702Z,100185.09
2022-09-23T22:34:05.442Z,100180.63
2022-09-23T22:36:33.154Z,100180.75
2022-09-23T22:39:03.561Z,100184.28
2022-09-23T22:41:31.470Z,100188.84
2022-09-23T22:44:00.441Z,100185.22
2022-09-23T22:46:30.180Z,100192.25
2022-09-23T22:48:58.378Z,100185.22
2022-09-23T22:51:26.400Z,100191.41
2022-09-23T22:53:54.186Z,100125.50
2022-09-23T22:56:21.893Z,100179.88
2022-09-23T22:58:49.564Z,100179.88
2022-09-23T23:01:17.312Z,100174.56
2022-09-23T23:03:46.444Z,100168.38
2022-09-23T23:06:14.167Z,100171.16
2022-09-23T23:08:41.820Z,100161.44
2022-09-23T23:11:10.996Z,100049.63
2022-09-23T23:13:39.127Z,100163.38
2022-09-23T23:16:07.326Z,100151.75
2022-09-23T23:18:35.932Z,100156.00
2022-09-23T23:21:09.549Z,100159.63
2022-09-23T23:23:38.708Z,100155.28
2022-09-23T23:26:10.592Z,100094.78
2022-09-23T23:28:38.291Z,100157.06
2022-09-23T23:31:06.350Z,100084.66
2022-09-23T23:33:34.059Z,100126.38
2022-09-23T23:36:02.034Z,100150.06
2022-09-23T23:38:31.087Z,100149.19
2022-09-23T23:41:02.756Z,100102.47
2022-09-23T23:43:30.465Z,100145.16
2022-09-23T23:45:58.170Z,100145.78
2022-09-23T23:48:25.864Z,100134.91
2022-09-23T23:50:54.683Z,100145.78
2022-09-23T23:53:22.446Z,100096.63
2022-09-23T23:55:51.481Z,100070.53
2022-09-23T23:58:19.242Z,100143.44
